Time;durP1;ratioP1;P1;durP2;ratioP2;P2;SDS_P1;SDS_P2;PMS_P1;PMS_P2;Temp;Humidity;BMP_temperature;BMP_pressure;BME280_temperature;BME280_humidity;BME280_pressure;Samples;Min_cycle;Max_cycle;Signal;HPM_P1;HPM_P2
2023/03/09 00:01:37;;;;;;;20.05;7.93;;;1.60;99.90;;;;;;4881880;29;20029;-39
2023/03/09 00:04:03;;;;;;;18.35;8.55;;;1.70;99.90;;;;;;4882270;29;20057;-36
2023/03/09 00:06:29;;;;;;;18.52;7.95;;;1.70;99.90;;;;;;4882970;29;20049;-38
2023/03/09 00:08:55;;;;;;;18.45;7.80;;;1.80;99.90;;;;;;4895410;29;20033;-37
2023/03/09 00:11:20;;;;;;;19.63;8.98;;;1.70;99.90;;;;;;4901273;29;20032;-41
2023/03/09 00:13:55;;;;;;;20.65;8.70;;;1.60;99.90;;;;;;4901288;29;20036;-38
2023/03/09 00:16:26;;;;;;;16.73;7.32;;;1.70;99.90;;;;;;4892265;29;20179;-36
2023/03/09 00:18:53;;;;;;;17.15;7.80;;;1.60;99.90;;;;;;4882731;29;20487;-35
2023/03/09 00:21:40;;;;;;;19.60;8.30;;;1.60;99.90;;;;;;4882397;29;20392;-40
2023/03/09 00:24:09;;;;;;;18.27;7.75;;;1.60;99.90;;;;;;4882724;29;20483;-38
2023/03/09 00:26:38;;;;;;;17.45;7.85;;;1.60;99.90;;;;;;4882444;29;20110;-36
2023/03/09 00:29:04;;;;;;;17.42;7.50;;;1.70;99.90;;;;;;4882630;29;20036;-37
2023/03/09 00:31:30;;;;;;;21.50;9.20;;;1.70;99.90;;;;;;4882445;29;20033;-39
2023/03/09 00:33:56;;;;;;;17.67;8.18;;;1.70;99.90;;;;;;4881564;29;20033;-34
2023/03/09 00:36:22;;;;;;;15.88;7.05;;;1.60;99.90;;;;;;4881138;29;20573;-38
2023/03/09 00:38:52;;;;;;;16.73;7.80;;;1.50;99.90;;;;;;4880659;29;20127;-34
2023/03/09 00:41:19;;;;;;;17.50;7.72;;;1.50;99.90;;;;;;4881378;29;20025;-34
2023/03/09 00:43:45;;;;;;;22.27;7.60;;;1.50;99.90;;;;;;4881861;29;20490;-38
2023/03/09 00:46:11;;;;;;;19.00;7.85;;;1.60;99.90;;;;;;4881913;29;20070;-34
2023/03/09 00:48:37;;;;;;;21.38;7.88;;;1.60;99.90;;;;;;4881773;29;20033;-37
2023/03/09 00:51:03;;;;;;;21.50;8.90;;;1.50;99.90;;;;;;4881260;29;20482;-39
2023/03/09 00:53:29;;;;;;;19.85;8.55;;;1.50;99.90;;;;;;4881233;29;20029;-36
2023/03/09 00:55:55;;;;;;;18.13;8.70;;;1.60;99.90;;;;;;4881707;29;20052;-38
2023/03/09 00:58:20;;;;;;;16.83;7.07;;;1.70;99.90;;;;;;4881877;29;20486;-42
2023/03/09 01:00:46;;;;;;;16.33;7.07;;;1.80;99.90;;;;;;4880807;29;20032;-46
2023/03/09 01:03:12;;;;;;;20.30;7.22;;;1.80;99.90;;;;;;4878511;29;20388;-42
2023/03/09 01:05:38;;;;;;;17.30;5.82;;;1.80;99.90;;;;;;4880858;29;20033;-44
2023/03/09 01:08:03;;;;;;;13.60;6.68;;;1.80;99.90;;;;;;4881210;29;20551;-46
2023/03/09 01:10:29;;;;;;;16.52;7.50;;;1.80;99.90;;;;;;4881704;29;20033;-52
2023/03/09 01:12:55;;;;;;;17.95;8.07;;;1.90;99.90;;;;;;4883653;29;20037;-49
2023/03/09 01:15:21;;;;;;;15.38;7.97;;;1.80;99.90;;;;;;4900478;29;20032;-48
2023/03/09 01:17:50;;;;;;;12.93;6.40;;;1.80;99.90;;;;;;4892863;29;20052;-44
2023/03/09 01:20:15;;;;;;;16.65;7.22;;;1.80;99.90;;;;;;4881415;29;20383;-44
2023/03/09 01:22:41;;;;;;;18.63;6.88;;;1.70;99.90;;;;;;4878975;29;20048;-43
2023/03/09 01:25:07;;;;;;;16.50;7.28;;;1.80;99.90;;;;;;4880916;29;20045;-44
2023/03/09 01:27:33;;;;;;;18.08;7.13;;;1.90;99.90;;;;;;4881456;29;20025;-44
2023/03/09 01:29:58;;;;;;;19.23;7.93;;;1.90;99.90;;;;;;4881364;29;20088;-43
2023/03/09 01:32:25;;;;;;;13.52;6.75;;;1.80;99.90;;;;;;4879540;29;20021;-47
2023/03/09 01:34:52;;;;;;;19.33;6.95;;;1.80;99.90;;;;;;4877655;29;20033;-44
2023/03/09 01:37:18;;;;;;;13.70;6.32;;;1.80;99.90;;;;;;4880808;29;20471;-46
2023/03/09 01:39:44;;;;;;;15.48;7.20;;;1.80;99.90;;;;;;4881344;29;20052;-43
2023/03/09 01:42:10;;;;;;;14.25;6.28;;;1.80;99.90;;;;;;4880204;29;20119;-45
2023/03/09 01:44:36;;;;;;;15.30;7.10;;;1.80;99.90;;;;;;4848997;29;20479;-42
2023/03/09 01:47:02;;;;;;;12.43;6.03;;;1.80;99.90;;;;;;4880194;29;20039;-44
2023/03/09 01:49:45;;;;;;;11.65;6.38;;;1.90;99.90;;;;;;4880906;29;20501;-44
2023/03/09 01:52:16;;;;;;;11.63;6.00;;;1.90;99.90;;;;;;4880152;29;20029;-42
2023/03/09 01:54:50;;;;;;;12.63;5.88;;;1.90;99.90;;;;;;4880701;29;20045;-42
2023/03/09 01:57:19;;;;;;;13.32;6.43;;;1.80;99.90;;;;;;4846030;29;20025;-41
2023/03/09 01:59:47;;;;;;;12.40;6.10;;;1.90;99.90;;;;;;4862244;29;20077;-43
2023/03/09 02:02:15;;;;;;;12.93;6.18;;;1.90;99.90;;;;;;4879596;29;20037;-46
2023/03/09 02:04:45;;;;;;;14.05;6.68;;;1.90;99.90;;;;;;4880139;29;20062;-38
2023/03/09 02:07:13;;;;;;;13.85;6.45;;;2.00;99.90;;;;;;4880260;29;20029;-40
2023/03/09 02:09:48;;;;;;;16.92;7.18;;;1.90;99.90;;;;;;4863811;29;20124;-35
2023/03/09 02:12:18;;;;;;;15.38;6.60;;;1.90;99.90;;;;;;4879422;29;20029;-38
2023/03/09 02:14:44;;;;;;;19.15;7.05;;;1.80;99.90;;;;;;4880541;29;20029;-37
2023/03/09 02:17:11;;;;;;;18.88;7.55;;;1.80;99.90;;;;;;4894703;29;20031;-38
2023/03/09 02:19:43;;;;;;;15.40;7.43;;;1.80;99.90;;;;;;4885811;29;20486;-36
2023/03/09 02:22:10;;;;;;;21.05;7.05;;;1.80;99.90;;;;;;4879957;29;20039;-35
2023/03/09 02:24:41;;;;;;;14.65;6.78;;;1.80;99.90;;;;;;4880330;29;20029;-39
2023/03/09 02:27:12;;;;;;;14.40;6.57;;;1.90;99.90;;;;;;4880080;29;20036;-39
2023/03/09 02:29:38;;;;;;;15.85;7.25;;;1.80;99.90;;;;;;4879587;29;20066;-38
2023/03/09 02:32:04;;;;;;;13.35;6.38;;;1.90;99.90;;;;;;4880062;29;20108;-39
2023/03/09 02:34:29;;;;;;;12.93;6.28;;;1.90;99.90;;;;;;4862316;29;20024;-37
2023/03/09 02:36:55;;;;;;;13.48;6.03;;;1.90;99.90;;;;;;4880324;29;20033;-39
2023/03/09 02:39:38;;;;;;;15.60;7.50;;;1.90;99.90;;;;;;4879122;29;20021;-38
2023/03/09 02:42:05;;;;;;;14.50;6.72;;;1.90;99.90;;;;;;4880027;29;20047;-40
2023/03/09 02:44:32;;;;;;;15.18;7.80;;;1.90;99.90;;;;;;4880183;29;20522;-40
2023/03/09 02:47:00;;;;;;;17.13;7.07;;;1.80;99.90;;;;;;4879962;29;20482;-44
2023/03/09 02:49:26;;;;;;;;;;;1.80;99.90;;;;;;4879913;29;20386;-43
2023/03/09 02:51:52;;;;;;;15.10;6.25;;;1.80;99.90;;;;;;4862498;29;19940;-44
2023/03/09 02:54:17;;;;;;;14.20;6.80;;;1.80;99.90;;;;;;4879819;29;20033;-45
2023/03/09 02:56:43;;;;;;;16.02;6.03;;;1.90;99.90;;;;;;4879859;29;20033;-45
2023/03/09 02:59:08;;;;;;;17.02;6.05;;;1.90;99.90;;;;;;4878505;29;20504;-42
2023/03/09 03:01:34;;;;;;;14.75;6.50;;;1.90;99.90;;;;;;4879516;29;20031;-46
2023/03/09 03:04:00;;;;;;;15.02;7.15;;;1.90;99.90;;;;;;4878764;29;20398;-43
2023/03/09 03:06:25;;;;;;;14.27;6.53;;;2.00;99.90;;;;;;4879659;29;20025;-44
2023/03/09 03:08:51;;;;;;;16.75;7.32;;;2.00;99.90;;;;;;4877871;29;20313;-47
2023/03/09 03:11:16;;;;;;;17.23;6.80;;;1.90;99.90;;;;;;4879464;29;20482;-45
2023/03/09 03:13:42;;;;;;;17.52;8.15;;;1.80;99.90;;;;;;4879645;29;20064;-44
2023/03/09 03:16:08;;;;;;;14.10;6.47;;;1.80;99.90;;;;;;4877395;29;20017;-44
2023/03/09 03:18:33;;;;;;;14.55;8.02;;;1.80;99.90;;;;;;4879270;29;20134;-45
2023/03/09 03:20:59;;;;;;;19.13;7.88;;;1.90;99.90;;;;;;4878583;29;20033;-43
2023/03/09 03:23:25;;;;;;;19.52;7.55;;;1.90;99.90;;;;;;4879369;29;20025;-42
2023/03/09 03:25:51;;;;;;;15.95;7.25;;;1.90;99.90;;;;;;4862087;29;20133;-38
2023/03/09 03:28:16;;;;;;;17.23;6.75;;;1.90;99.90;;;;;;4879546;29;20104;-35
2023/03/09 03:30:42;;;;;;;19.08;7.38;;;1.90;99.90;;;;;;4889963;29;20021;-39
2023/03/09 03:33:07;;;;;;;18.42;6.72;;;1.90;99.90;;;;;;4885941;29;20069;-38
2023/03/09 03:35:33;;;;;;;12.57;6.45;;;2.00;99.90;;;;;;4878331;29;20115;-41
2023/03/09 03:37:59;;;;;;;11.00;5.82;;;2.00;99.90;;;;;;4879170;29;20491;-36
2023/03/09 03:40:26;;;;;;;15.20;6.43;;;2.00;99.90;;;;;;4879428;29;20426;-40
2023/03/09 03:42:51;;;;;;;15.88;5.95;;;2.10;99.90;;;;;;4878130;29;20033;-42
2023/03/09 03:45:18;;;;;;;13.98;5.85;;;2.00;99.90;;;;;;4879106;29;20044;-45
2023/03/09 03:47:43;;;;;;;16.23;7.28;;;2.10;99.90;;;;;;4862704;29;20025;-42
2023/03/09 03:50:09;;;;;;;13.40;6.47;;;2.00;99.90;;;;;;4878394;29;20501;-47
2023/03/09 03:52:35;;;;;;;16.45;7.32;;;2.00;99.90;;;;;;4878971;29;20035;-45
2023/03/09 03:55:01;;;;;;;15.90;6.90;;;2.00;99.90;;;;;;4878887;29;20041;-45
2023/03/09 03:57:27;;;;;;;13.23;5.97;;;1.90;99.90;;;;;;4879008;29;20077;-45
2023/03/09 03:59:52;;;;;;;15.98;7.35;;;1.90;99.90;;;;;;4878236;29;20382;-47
2023/03/09 04:02:18;;;;;;;17.50;7.18;;;2.00;99.90;;;;;;4862431;29;20406;-44
2023/03/09 04:04:43;;;;;;;12.45;6.25;;;1.90;99.90;;;;;;4878240;29;20486;-41
2023/03/09 04:07:09;;;;;;;18.15;7.25;;;2.00;99.90;;;;;;4879154;29;20029;-46
2023/03/09 04:09:35;;;;;;;15.02;6.78;;;2.00;99.90;;;;;;4877937;29;20132;-36
2023/03/09 04:12:00;;;;;;;17.45;7.13;;;2.00;99.90;;;;;;4878816;29;20116;-39
2023/03/09 04:14:26;;;;;;;15.70;7.32;;;2.10;99.90;;;;;;4878878;29;20444;-37
2023/03/09 04:16:52;;;;;;;17.67;7.47;;;2.10;99.90;;;;;;4877660;29;20085;-37
2023/03/09 04:19:18;;;;;;;15.10;6.93;;;2.10;99.90;;;;;;4878834;29;20029;-37
2023/03/09 04:21:44;;;;;;;17.25;7.35;;;2.00;99.90;;;;;;4878183;29;20497;-38
2023/03/09 04:24:09;;;;;;;17.15;7.97;;;2.00;99.90;;;;;;4878789;29;20076;-36
2023/03/09 04:26:35;;;;;;;16.55;7.40;;;1.90;99.90;;;;;;4878110;29;20474;-40
2023/03/09 04:29:01;;;;;;;15.95;6.97;;;1.80;99.90;;;;;;4878767;29;20021;-38
2023/03/09 04:31:26;;;;;;;14.65;6.45;;;1.90;99.90;;;;;;4878726;29;20032;-36
2023/03/09 04:33:52;;;;;;;19.52;7.75;;;1.90;99.90;;;;;;4896475;29;20024;-35
2023/03/09 04:36:18;;;;;;;17.33;6.80;;;2.00;99.90;;;;;;4885149;29;20474;-38
2023/03/09 04:38:43;;;;;;;16.35;7.55;;;2.00;99.90;;;;;;4882185;29;20021;-37
2023/03/09 04:41:11;;;;;;;17.05;6.68;;;2.00;99.90;;;;;;4877519;29;20053;-42
2023/03/09 04:43:37;;;;;;;16.75;7.03;;;1.90;99.90;;;;;;4879781;29;20043;-41
2023/03/09 04:46:03;;;;;;;16.20;6.97;;;2.00;99.90;;;;;;4878061;29;20115;-43
2023/03/09 04:48:29;;;;;;;15.35;7.15;;;2.00;99.90;;;;;;4879198;29;20060;-44
2023/03/09 04:50:54;;;;;;;16.55;7.03;;;2.10;99.90;;;;;;4881268;29;20108;-42
2023/03/09 04:53:20;;;;;;;17.42;6.82;;;2.00;99.90;;;;;;4880399;29;20093;-45
2023/03/09 04:55:46;;;;;;;17.00;7.22;;;2.00;99.90;;;;;;4880681;29;20469;-44
2023/03/09 04:58:11;;;;;;;18.33;7.60;;;2.10;99.90;;;;;;4880981;29;20490;-46
2023/03/09 05:00:37;;;;;;;13.57;6.85;;;2.20;99.90;;;;;;4880618;29;20478;-44
2023/03/09 05:03:03;;;;;;;18.23;7.43;;;2.20;99.90;;;;;;4881135;29;20048;-56
2023/03/09 05:05:28;;;;;;;17.50;7.53;;;2.20;99.90;;;;;;4879226;29;20029;-43
2023/03/09 05:07:54;;;;;;;22.45;8.25;;;2.20;99.90;;;;;;4880684;29;20111;-51
2023/03/09 05:10:20;;;;;;;16.60;7.05;;;2.20;99.90;;;;;;4879523;29;20509;-52
2023/03/09 05:12:46;;;;;;;18.52;8.30;;;2.20;99.90;;;;;;4881359;29;20037;-45
2023/03/09 05:15:12;;;;;;;16.77;7.90;;;2.10;99.90;;;;;;4881019;29;20489;-45
2023/03/09 05:17:37;;;;;;;17.85;8.25;;;2.20;99.90;;;;;;4881507;29;20036;-43
2023/03/09 05:20:09;;;;;;;17.05;7.43;;;2.10;99.90;;;;;;4880843;29;20487;-46
2023/03/09 05:22:37;;;;;;;18.88;7.18;;;2.10;99.90;;;;;;4880879;29;20040;-45
2023/03/09 05:25:04;;;;;;;15.65;7.70;;;2.10;99.90;;;;;;4881444;29;20033;-43
2023/03/09 05:27:30;;;;;;;16.03;7.50;;;2.10;99.90;;;;;;4881205;29;20056;-46
2023/03/09 05:29:56;;;;;;;19.70;7.82;;;2.10;99.90;;;;;;4881118;29;20289;-45
2023/03/09 05:32:22;;;;;;;20.60;8.18;;;2.10;99.90;;;;;;4867062;29;20509;-44
2023/03/09 05:34:47;;;;;;;18.73;8.20;;;2.10;99.90;;;;;;4874175;29;20036;-44
2023/03/09 05:37:13;;;;;;;19.50;7.93;;;2.20;99.90;;;;;;4880334;29;20103;-43
2023/03/09 05:39:39;;;;;;;17.55;7.43;;;2.20;99.90;;;;;;4876228;29;20035;-43
2023/03/09 05:42:05;;;;;;;17.80;7.63;;;2.20;99.90;;;;;;4880905;29;20117;-50
2023/03/09 05:44:31;;;;;;;21.73;8.35;;;2.10;99.90;;;;;;4881014;29;20056;-45
2023/03/09 05:46:57;;;;;;;21.20;8.23;;;2.10;99.90;;;;;;4880593;29;20072;-43
2023/03/09 05:49:24;;;;;;;22.00;7.70;;;2.00;99.90;;;;;;4881045;29;20033;-39
2023/03/09 05:51:49;;;;;;;20.40;8.55;;;2.10;99.90;;;;;;4880799;29;20497;-40
2023/03/09 05:54:16;;;;;;;19.00;8.30;;;2.30;99.90;;;;;;4880839;29;20037;-35
2023/03/09 05:56:42;;;;;;;21.63;8.75;;;2.30;99.90;;;;;;4879643;29;20547;-39
2023/03/09 05:59:08;;;;;;;20.52;8.32;;;2.10;99.90;;;;;;4880757;29;20040;-41
2023/03/09 06:01:33;;;;;;;24.00;9.77;;;2.10;99.90;;;;;;4880748;29;20367;-41
2023/03/09 06:03:59;;;;;;;19.70;8.82;;;2.10;99.90;;;;;;4880648;29;20025;-39
2023/03/09 06:06:25;;;;;;;18.67;8.10;;;2.10;99.90;;;;;;4880915;29;20025;-36
2023/03/09 06:08:51;;;;;;;22.27;9.32;;;2.10;99.90;;;;;;4880059;29;20025;-38
2023/03/09 06:11:17;;;;;;;21.35;8.95;;;2.10;99.90;;;;;;4878973;29;20064;-40
2023/03/09 06:13:42;;;;;;;23.35;9.25;;;2.00;99.90;;;;;;4879534;29;20341;-38
2023/03/09 06:16:14;;;;;;;20.77;8.88;;;2.00;99.90;;;;;;4880740;29;20494;-38
2023/03/09 06:18:41;;;;;;;20.27;8.88;;;2.10;99.90;;;;;;4880347;29;20089;-37
2023/03/09 06:21:08;;;;;;;24.70;9.27;;;2.20;99.90;;;;;;4880658;29;20029;-36
2023/03/09 06:23:37;;;;;;;21.48;9.73;;;2.20;99.90;;;;;;4880682;29;20112;-46
2023/03/09 06:26:05;;;;;;;20.05;9.05;;;2.20;99.90;;;;;;4880294;29;20037;-39
2023/03/09 06:28:31;;;;;;;23.15;9.82;;;2.20;99.90;;;;;;4880277;29;20043;-36
2023/03/09 06:30:57;;;;;;;21.33;8.43;;;2.20;99.90;;;;;;4877238;29;20062;-42
2023/03/09 06:33:23;;;;;;;19.58;8.32;;;2.20;99.90;;;;;;4877338;29;20064;-41
2023/03/09 06:35:48;;;;;;;19.13;8.93;;;2.20;99.90;;;;;;4879230;29;20533;-41
2023/03/09 06:38:14;;;;;;;18.98;7.80;;;2.10;99.90;;;;;;4880178;29;20166;-39
2023/03/09 06:40:39;;;;;;;26.92;10.02;;;2.10;99.90;;;;;;4876439;29;20053;-39
2023/03/09 06:43:06;;;;;;;25.25;8.88;;;2.20;99.90;;;;;;4874281;29;20055;-43
2023/03/09 06:45:32;;;;;;;20.63;8.68;;;2.20;99.90;;;;;;4875799;29;20059;-41
2023/03/09 06:47:57;;;;;;;17.38;8.25;;;2.30;99.90;;;;;;4874918;29;20061;-38
2023/03/09 06:50:25;;;;;;;24.00;9.57;;;2.30;99.90;;;;;;4874828;29;20025;-46
2023/03/09 06:52:52;;;;;;;24.25;8.77;;;2.20;99.90;;;;;;4876931;29;20097;-49
2023/03/09 06:55:18;;;;;;;24.77;9.38;;;2.20;99.90;;;;;;4879844;29;20101;-46
2023/03/09 06:57:44;;;;;;;20.55;9.15;;;2.30;99.90;;;;;;4879063;29;20505;-39
2023/03/09 07:00:11;;;;;;;19.95;8.57;;;2.30;99.90;;;;;;4860821;29;20029;-44
2023/03/09 07:02:38;;;;;;;20.27;8.75;;;2.40;99.90;;;;;;4878899;29;20564;-51
2023/03/09 07:05:06;;;;;;;20.70;8.23;;;2.40;99.90;;;;;;4874588;29;20455;-48
2023/03/09 07:07:32;;;;;;;19.83;8.30;;;2.60;99.90;;;;;;4877919;29;20085;-48
2023/03/09 07:09:58;;;;;;;20.98;9.18;;;2.60;99.90;;;;;;4879606;29;20029;-51
2023/03/09 07:12:24;;;;;;;19.02;7.93;;;2.60;99.90;;;;;;4877919;29;20040;-45
2023/03/09 07:14:49;;;;;;;19.92;8.68;;;2.60;99.90;;;;;;4878868;29;20074;-46
2023/03/09 07:17:15;;;;;;;21.27;9.23;;;2.60;99.90;;;;;;4875718;29;20607;-50
2023/03/09 07:19:41;;;;;;;22.08;8.98;;;2.70;99.90;;;;;;4873109;29;20021;-38
2023/03/09 07:22:09;;;;;;;20.20;8.55;;;2.60;99.90;;;;;;4878621;29;20037;-39
2023/03/09 07:24:35;;;;;;;20.45;8.32;;;2.70;99.90;;;;;;4878070;29;20064;-39
2023/03/09 07:27:01;;;;;;;19.38;8.80;;;2.70;99.90;;;;;;4878041;29;20081;-38
2023/03/09 07:29:27;;;;;;;19.35;8.57;;;2.70;99.90;;;;;;4878128;29;20037;-40
2023/03/09 07:31:52;;;;;;;23.25;9.13;;;2.80;99.90;;;;;;4878108;29;20040;-39
2023/03/09 07:34:18;;;;;;;22.33;9.43;;;2.90;99.90;;;;;;4876730;29;20025;-40
2023/03/09 07:36:44;;;;;;;20.73;9.07;;;2.80;99.90;;;;;;4876333;29;20025;-51
2023/03/09 07:39:10;;;;;;;20.90;8.32;;;2.90;99.90;;;;;;4874019;29;20067;-46
2023/03/09 07:41:35;;;;;;;21.88;8.27;;;2.90;99.90;;;;;;4877029;29;20080;-43
2023/03/09 07:44:01;;;;;;;18.52;8.45;;;2.90;99.90;;;;;;4878655;29;20036;-48
2023/03/09 07:46:27;;;;;;;15.20;7.55;;;3.00;99.90;;;;;;4879054;29;20064;-41
2023/03/09 07:48:53;;;;;;;21.40;9.18;;;2.90;99.90;;;;;;4878934;29;20546;-39
2023/03/09 07:51:19;;;;;;;20.65;9.02;;;2.80;99.90;;;;;;4877838;29;20489;-39
2023/03/09 07:53:44;;;;;;;20.63;8.98;;;2.80;99.90;;;;;;4874576;29;20033;-40
2023/03/09 07:56:10;;;;;;;17.58;8.13;;;2.90;99.90;;;;;;4877993;29;20045;-47
2023/03/09 07:58:38;;;;;;;19.63;8.32;;;3.00;99.90;;;;;;4878735;29;20574;-46
2023/03/09 08:01:06;;;;;;;21.10;8.63;;;3.00;99.90;;;;;;4878624;29;20032;-44
2023/03/09 08:03:32;;;;;;;24.45;9.68;;;3.20;99.90;;;;;;4878395;29;20081;-51
2023/03/09 08:06:01;;;;;;;22.80;9.55;;;3.20;99.90;;;;;;4878992;29;20393;-48
2023/03/09 08:08:27;;;;;;;19.88;9.00;;;3.10;99.90;;;;;;4882963;29;20040;-50
2023/03/09 08:10:54;;;;;;;22.60;9.38;;;3.20;99.90;;;;;;4880811;29;20090;-45
2023/03/09 08:13:22;;;;;;;21.15;8.73;;;3.20;99.90;;;;;;4882614;29;20045;-47
2023/03/09 08:15:48;;;;;;;24.45;10.23;;;3.30;99.90;;;;;;4882603;29;20507;-47
2023/03/09 08:18:14;;;;;;;20.20;8.93;;;3.50;99.90;;;;;;4882627;29;20036;-47
2023/03/09 08:20:40;;;;;;;19.70;9.10;;;3.60;99.90;;;;;;4882605;29;20506;-47
2023/03/09 08:23:06;;;;;;;23.02;9.57;;;3.60;99.90;;;;;;4882692;29;20394;-47
2023/03/09 08:25:33;;;;;;;20.83;9.55;;;3.60;99.90;;;;;;4882390;29;20040;-50
2023/03/09 08:27:59;;;;;;;18.40;8.70;;;3.60;99.90;;;;;;4882337;29;20060;-48
2023/03/09 08:30:25;;;;;;;19.02;8.82;;;3.60;99.90;;;;;;4882323;29;20486;-50
2023/03/09 08:32:53;;;;;;;16.77;8.15;;;3.70;99.90;;;;;;4882592;29;20033;-46
2023/03/09 08:35:22;;;;;;;29.17;9.02;;;3.70;99.90;;;;;;4882281;29;20490;-39
2023/03/09 08:37:48;;;;;;;20.73;8.73;;;3.60;99.90;;;;;;4882441;29;20029;-42
2023/03/09 08:40:16;;;;;;;20.75;9.52;;;3.60;99.90;;;;;;4882210;29;20036;-41
2023/03/09 08:42:42;;;;;;;15.60;6.67;;;3.50;99.90;;;;;;4882099;29;20033;-40
2023/03/09 08:45:09;;;;;;;21.13;9.60;;;3.50;99.90;;;;;;4865372;29;20043;-41
2023/03/09 08:47:35;;;;;;;19.67;10.32;;;3.50;99.90;;;;;;4882073;29;20033;-39
2023/03/09 08:50:01;;;;;;;21.60;8.50;;;3.40;99.90;;;;;;4882210;29;20033;-39
2023/03/09 08:52:26;;;;;;;18.27;9.05;;;3.40;99.90;;;;;;4881838;29;20037;-42
2023/03/09 08:54:52;;;;;;;17.85;8.52;;;3.60;99.90;;;;;;4881714;29;20037;-41
2023/03/09 08:57:18;;;;;;;17.35;8.52;;;3.70;99.90;;;;;;4881872;29;20073;-39
2023/03/09 08:59:46;;;;;;;22.15;8.63;;;3.70;99.90;;;;;;4881840;29;20036;-48
2023/03/09 09:02:14;;;;;;;;;;;3.70;99.90;;;;;;4882271;29;20505;-48
2023/03/09 09:04:45;;;;;;;20.80;9.38;;;3.70;99.90;;;;;;4882063;29;19912;-45
2023/03/09 09:07:12;;;;;;;16.17;8.73;;;3.80;99.90;;;;;;4881929;29;20037;-45
2023/03/09 09:09:39;;;;;;;14.27;6.20;;;3.90;99.90;;;;;;4881720;29;20037;-47
2023/03/09 09:12:05;;;;;;;21.88;9.68;;;3.80;99.90;;;;;;4881587;29;20305;-46
2023/03/09 09:14:32;;;;;;;17.60;8.65;;;3.80;99.90;;;;;;4881630;29;20080;-47
2023/03/09 09:16:58;;;;;;;20.42;8.77;;;3.70;99.90;;;;;;4881560;29;20029;-45
2023/03/09 09:19:24;;;;;;;21.15;10.48;;;3.70;99.90;;;;;;4881465;29;20040;-46
2023/03/09 09:21:54;;;;;;;23.95;8.95;;;3.80;99.90;;;;;;4880677;29;20367;-50
2023/03/09 09:24:21;;;;;;;24.65;10.10;;;3.70;99.90;;;;;;4881785;29;20620;-50
2023/03/09 09:26:47;;;;;;;20.25;8.63;;;3.70;99.90;;;;;;4881356;29;20582;-44
2023/03/09 09:29:12;;;;;;;20.73;9.32;;;3.70;99.90;;;;;;4881535;29;20113;-45
2023/03/09 09:31:38;;;;;;;21.00;8.68;;;3.90;99.90;;;;;;4881336;29;20033;-44
2023/03/09 09:34:04;;;;;;;24.83;9.98;;;4.00;99.90;;;;;;4881189;29;20557;-44
2023/03/09 09:36:30;;;;;;;19.83;9.55;;;4.10;99.90;;;;;;4881174;29;20085;-39
2023/03/09 09:38:56;;;;;;;17.05;9.02;;;4.10;99.90;;;;;;4881127;29;20029;-41
2023/03/09 09:41:26;;;;;;;22.58;10.70;;;4.10;99.90;;;;;;4881033;29;20031;-40
2023/03/09 09:43:57;;;;;;;22.00;9.05;;;4.00;99.90;;;;;;4881075;29;20037;-41
2023/03/09 09:46:24;;;;;;;21.38;8.90;;;4.10;99.90;;;;;;4881368;29;20393;-40
2023/03/09 09:48:50;;;;;;;23.75;10.23;;;4.10;99.90;;;;;;4881177;29;20561;-38
2023/03/09 09:51:49;;;;;;;24.05;9.57;;;4.10;99.90;;;;;;4881204;29;20043;-41
2023/03/09 09:54:20;;;;;;;19.60;9.27;;;4.10;99.90;;;;;;4880848;29;20076;-40
2023/03/09 09:56:50;;;;;;;25.88;10.32;;;4.10;99.90;;;;;;4880713;29;20053;-41
2023/03/09 09:59:22;;;;;;;25.27;10.82;;;4.20;99.90;;;;;;4880918;29;20506;-38
2023/03/09 10:01:58;;;;;;;25.83;10.88;;;4.30;99.90;;;;;;4880882;29;20545;-40
2023/03/09 10:04:55;;;;;;;28.83;11.27;;;4.40;99.90;;;;;;4880753;29;20398;-39
2023/03/09 10:07:23;;;;;;;22.75;9.32;;;4.40;99.90;;;;;;4880492;29;20033;-38
2023/03/09 10:10:22;;;;;;;25.55;10.25;;;4.40;99.90;;;;;;4880647;29;20040;-39
2023/03/09 10:12:47;;;;;;;21.83;9.45;;;4.40;99.90;;;;;;4880709;29;20040;-40
2023/03/09 10:15:28;;;;;;;29.83;11.35;;;4.40;99.90;;;;;;4880524;29;20028;-39
2023/03/09 10:18:24;;;;;;;24.67;10.05;;;4.40;99.90;;;;;;4880520;29;20099;-39
2023/03/09 10:20:52;;;;;;;22.00;9.15;;;4.50;99.90;;;;;;4879994;29;20402;-36
2023/03/09 10:23:17;;;;;;;;;;;4.40;99.90;;;;;;4880695;29;20045;-36
2023/03/09 10:25:44;;;;;;;20.45;8.30;;;4.40;99.90;;;;;;4880555;29;19920;-40
2023/03/09 10:28:16;;;;;;;18.90;8.95;;;4.50;99.90;;;;;;4880523;29;20041;-40
2023/03/09 10:31:12;;;;;;;26.33;10.07;;;4.50;99.90;;;;;;4880247;29;20037;-39
2023/03/09 10:33:45;;;;;;;25.52;9.73;;;4.60;99.90;;;;;;4873578;29;20520;-37
2023/03/09 10:36:17;;;;;;;27.55;10.77;;;4.70;99.90;;;;;;4863399;29;20509;-39
2023/03/09 10:38:43;;;;;;;25.40;8.70;;;4.70;99.90;;;;;;4880353;29;20028;-38
2023/03/09 10:41:19;;;;;;;22.17;9.23;;;4.70;99.90;;;;;;4879968;29;20037;-39
2023/03/09 10:43:46;;;;;;;21.20;8.55;;;4.70;99.90;;;;;;4879874;29;20067;-38
2023/03/09 10:46:16;;;;;;;22.40;8.63;;;4.70;99.90;;;;;;4863223;29;20033;-39
2023/03/09 10:48:44;;;;;;;22.27;9.30;;;4.70;99.90;;;;;;4880079;29;20037;-40
2023/03/09 10:51:25;;;;;;;27.33;11.25;;;4.60;99.90;;;;;;4880099;29;20367;-39
2023/03/09 10:53:52;;;;;;;22.85;10.30;;;4.50;99.90;;;;;;4879703;29;20085;-38
2023/03/09 10:56:30;;;;;;;24.05;10.35;;;4.50;99.90;;;;;;4879532;29;20083;-41
2023/03/09 10:59:07;;;;;;;24.42;9.70;;;4.70;99.90;;;;;;4879815;29;20025;-40
2023/03/09 11:01:54;;;;;;;22.55;9.90;;;4.80;99.90;;;;;;4879997;29;20427;-37
2023/03/09 11:04:23;;;;;;;24.70;10.07;;;4.80;99.90;;;;;;4879618;29;20414;-40
2023/03/09 11:07:01;;;;;;;22.65;9.48;;;4.70;99.90;;;;;;4879783;29;20037;-42
2023/03/09 11:09:35;;;;;;;;;;;4.70;99.90;;;;;;4880230;29;20037;-39
2023/03/09 11:12:08;;;;;;;25.95;10.00;;;4.60;99.90;;;;;;4879433;29;19953;-39
2023/03/09 11:14:46;;;;;;;25.35;9.05;;;4.60;99.90;;;;;;4879772;29;20029;-35
2023/03/09 11:17:42;;;;;;;25.50;9.23;;;4.60;99.90;;;;;;4879552;29;20505;-45
2023/03/09 11:20:35;;;;;;;25.63;11.20;;;4.60;99.90;;;;;;4864274;29;20036;-46
2023/03/09 11:23:18;;;;;;;22.52;10.52;;;4.50;99.90;;;;;;4879421;29;20489;-47
2023/03/09 11:26:11;;;;;;;22.75;9.00;;;4.50;99.90;;;;;;4879389;29;20076;-44
2023/03/09 11:29:01;;;;;;;28.48;10.02;;;4.60;99.90;;;;;;4879390;29;20072;-50
2023/03/09 11:31:41;;;;;;;23.52;9.43;;;4.60;99.90;;;;;;4879394;29;20037;-48
2023/03/09 11:34:32;;;;;;;21.30;8.98;;;4.70;99.90;;;;;;4879532;29;20041;-47
2023/03/09 11:37:43;;;;;;;28.60;12.35;;;4.60;99.90;;;;;;4879474;29;20017;-44
2023/03/09 11:40:10;;;;;;;25.73;10.50;;;4.60;99.90;;;;;;4875520;29;20083;-46
2023/03/09 11:42:58;;;;;;;23.27;9.40;;;4.60;99.90;;;;;;4879479;29;20398;-48
2023/03/09 11:45:30;;;;;;;25.70;11.27;;;4.40;99.90;;;;;;4862078;29;20029;-45
2023/03/09 11:48:23;;;;;;;27.45;10.57;;;4.40;99.90;;;;;;4879113;29;20056;-44
2023/03/09 11:51:03;;;;;;;18.27;8.43;;;4.60;99.90;;;;;;4879251;29;20029;-44
2023/03/09 11:53:36;;;;;;;35.35;17.52;;;4.60;99.90;;;;;;4879150;29;20039;-47
2023/03/09 11:56:14;;;;;;;25.23;10.95;;;4.60;99.90;;;;;;4879077;29;20506;-41
2023/03/09 11:58:42;;;;;;;21.27;8.95;;;4.60;99.90;;;;;;4879165;29;20088;-42
2023/03/09 12:01:09;;;;;;;;;;;4.50;99.90;;;;;;4879495;29;20080;-42
2023/03/09 12:03:45;;;;;;;25.15;8.68;;;4.50;99.90;;;;;;4878973;29;19908;-42
2023/03/09 12:06:31;;;;;;;22.42;9.18;;;4.40;99.90;;;;;;4879251;29;20031;-42
2023/03/09 12:09:00;;;;;;;23.70;8.88;;;4.30;99.90;;;;;;4879152;29;20485;-41
2023/03/09 12:11:49;;;;;;;24.02;9.35;;;4.40;99.90;;;;;;4879145;29;20028;-42
2023/03/09 12:14:21;;;;;;;23.95;9.98;;;4.50;99.90;;;;;;4879001;29;20033;-41
2023/03/09 12:16:50;;;;;;;22.33;9.30;;;4.60;99.90;;;;;;4878819;29;20041;-42
2023/03/09 12:19:18;;;;;;;24.98;10.15;;;4.70;99.90;;;;;;4878878;29;20108;-45
2023/03/09 12:21:58;;;;;;;25.42;9.60;;;4.70;99.90;;;;;;4879102;29;20108;-44
2023/03/09 12:24:26;;;;;;;29.75;10.90;;;4.70;99.90;;;;;;4878895;29;20033;-44
2023/03/09 12:27:11;;;;;;;;;;;4.70;99.90;;;;;;4879251;29;20040;-47
2023/03/09 12:29:46;;;;;;;24.50;9.98;;;4.60;99.90;;;;;;4879040;29;20331;-44
2023/03/09 12:32:29;;;;;;;24.50;9.60;;;4.50;99.90;;;;;;4879028;29;20390;-44
2023/03/09 12:35:02;;;;;;;22.92;9.73;;;4.40;99.90;;;;;;4878741;29;20474;-43
2023/03/09 12:37:31;;;;;;;19.65;9.45;;;4.30;99.90;;;;;;4878711;29;20028;-43
2023/03/09 12:40:24;;;;;;;;;;;4.10;99.90;;;;;;4879105;29;20033;-45
2023/03/09 12:42:53;;;;;;;20.40;8.57;;;4.10;99.90;;;;;;4876418;29;19963;-44
2023/03/09 12:45:18;;;;;;;22.83;8.30;;;4.00;99.90;;;;;;4878733;29;20033;-42
2023/03/09 12:48:21;;;;;;;26.73;10.20;;;4.00;99.90;;;;;;4878438;29;20033;-40
2023/03/09 12:50:49;;;;;;;19.92;9.55;;;3.90;99.90;;;;;;4878442;29;20044;-43
2023/03/09 12:53:21;;;;;;;24.58;8.80;;;3.90;99.90;;;;;;4878359;29;20025;-43
2023/03/09 12:55:53;;;;;;;25.05;9.68;;;3.80;99.90;;;;;;4878501;29;20041;-44
2023/03/09 12:58:21;;;;;;;22.52;8.65;;;3.80;99.90;;;;;;4880832;29;20500;-37